LFLL/LYS METAR and TAF weather

Enter ICAO airport designator
Station Type Date Time Source
LFLL METAR 2019/10/21 06:00 UTC NOAA

LFLL 210600Z VRB01KT 9999 BKN025 14/11 Q1016 NOSIG


Station Type Date Time Source
LFLL Decoded METAR 2019/10/21 06:00 UTC NOAA

Lyon / Satolas, France (LFLL) 45-44N 005-05E 240M
Oct 21, 2019 - 02:00 AM EDT / 2019.10.21 0600 UTC
Wind: Variable at 1 MPH (1 KT):0
Visibility: greater than 7 mile(s):0
Sky conditions: mostly cloudy
Temperature: 57 F (14 C)
Dew Point: 51 F (11 C)
Relative Humidity: 82%
Pressure (altimeter): 30.00 in. Hg (1016 hPa)
ob: LFLL 210600Z VRB01KT 9999 BKN025 14/11 Q1016 NOSIG
cycle: 6

Station Type Date Time Source
LFLL TAF 2019/10/21 06:21 UTC NOAA

TAF LFLL 210500Z 2106/2212 VRB02KT 9999 SCT013 BKN030
BECMG 2107/2109 34004KT
TEMPO 2112/2201 RA BKN013
BECMG 2201/2203 6000 BKN008
BECMG 2210/2212 9999 SCT020

Example: see airport list